Electra, TX (76360)

2:41 PM CST on December 07, 2016 (GMT -0600)
Armory Ranch | | Change Station

Elev 1145 ft 34.08 °N, 98.90 °W | Updated 9 seconds ago

Overcast
Overcast
46.0 °F
Feels Like 41 °F
N
9.2
Wind Variable Wind from NNE
Gusts 12.3 mph

Today
High -- | Low -- °F
--% Chance of Precip.
Yesterday
High -- | Low -- °F
Precip. -- in
Pressure 30.12 in
Visibility 10.0 miles
Clouds Overcast 3600 ft
Windchill 41 °F
Dew Point 33 °F
Humidity 60%
Rainfall in
Snow Depth Not available.
7:28 AM 5:26 PM
First Quarter, 55% visible
METAR KFDR 071953Z AUTO 04006KT 10SM OVC036 07/M02 A3010 RMK AO2 SLP197 T00721017
Pressure 30.12 in
Visibility 10.0 miles
Clouds Overcast 3600 ft
Windchill 41 °F
Dew Point 33 °F
Humidity 60%
Rainfall in
Snow Depth Not available.
7:28 AM 5:26 PM
First Quarter, 55% visible
METAR KFDR 071953Z AUTO 04006KT 10SM OVC036 07/M02 A3010 RMK AO2 SLP197 T00721017

10-Day Weather Forecast

Almanac

Astronomy

Dec. 07, 2016 Rise Set
Actual Time
Civil Twilight
Nautical Twilight
Astronomical Twilight
Moon
Length of Visible Light
Length of Day
Tomorrow will be .
, % of the Moon is Illuminated

Today's Extremes

State Highs State Lows

Community

WunderPhotos

Upload Photos

1,956,170 photos uploaded!

WunderBlog® & News

Nearby

Air Quality

  Air Quality AQ Index Pollutant
Not available.

Snow Depth

Station Depth Elevation

Earthquake Activity

City Distance Mag. Time & Date
Minimum magnitude displayed is 2.5.

Coastal Water Temperatures

Place Temperature

Stations

Nearby Weather Stations

Station Location Temp. Windchill Dew Point Humidity Wind Precip. Elev Updated Type
                   

Watches & Warnings

There are currently no watches in effect.